sensor_id;sensor_type;location;lat;lon;timestamp;noise_LAeq;noise_LA_min;noise_LA_max;noise_LA01;noise_LA95
37162;Laerm;68342;52.598;13.450;2023-06-19T00:01:59;38.67;31.30;53.97;;
37162;Laerm;68342;52.598;13.450;2023-06-19T00:04:24;38.10;32.79;52.55;;
37162;Laerm;68342;52.598;13.450;2023-06-19T00:06:50;37.61;32.48;48.24;;
37162;Laerm;68342;52.598;13.450;2023-06-19T00:09:15;37.98;33.11;51.70;;
37162;Laerm;68342;52.598;13.450;2023-06-19T00:11:42;36.34;31.69;52.42;;
37162;Laerm;68342;52.598;13.450;2023-06-19T00:14:07;38.15;32.23;56.93;;
37162;Laerm;68342;52.598;13.450;2023-06-19T00:16:32;37.91;32.87;49.31;;
37162;Laerm;68342;52.598;13.450;2023-06-19T00:18:58;38.09;32.05;51.85;;
37162;Laerm;68342;52.598;13.450;2023-06-19T00:21:23;38.59;31.62;50.75;;
37162;Laerm;68342;52.598;13.450;2023-06-19T00:23:52;36.14;30.91;53.09;;
37162;Laerm;68342;52.598;13.450;2023-06-19T00:26:17;36.30;31.68;49.25;;
37162;Laerm;68342;52.598;13.450;2023-06-19T00:28:43;36.36;31.29;48.34;;
37162;Laerm;68342;52.598;13.450;2023-06-19T00:31:10;37.71;32.96;49.18;;
37162;Laerm;68342;52.598;13.450;2023-06-19T00:33:38;36.99;31.93;48.34;;
37162;Laerm;68342;52.598;13.450;2023-06-19T00:36:08;37.92;32.16;47.01;;
37162;Laerm;68342;52.598;13.450;2023-06-19T00:38:33;37.16;32.18;52.69;;
37162;Laerm;68342;52.598;13.450;2023-06-19T00:40:58;36.45;31.47;52.32;;
37162;Laerm;68342;52.598;13.450;2023-06-19T00:43:24;36.81;32.70;47.85;;
37162;Laerm;68342;52.598;13.450;2023-06-19T00:45:49;37.11;31.02;50.56;;
37162;Laerm;68342;52.598;13.450;2023-06-19T00:48:14;37.81;32.77;51.73;;
37162;Laerm;68342;52.598;13.450;2023-06-19T00:50:40;38.62;33.52;49.49;;
37162;Laerm;68342;52.598;13.450;2023-06-19T00:53:05;36.94;31.24;47.93;;
37162;Laerm;68342;52.598;13.450;2023-06-19T00:55:32;38.53;32.20;52.50;;
37162;Laerm;68342;52.598;13.450;2023-06-19T00:57:59;36.94;31.01;50.42;;
37162;Laerm;68342;52.598;13.450;2023-06-19T01:00:25;36.26;31.44;50.08;;
37162;Laerm;68342;52.598;13.450;2023-06-19T01:02:50;37.43;31.93;46.79;;
37162;Laerm;68342;52.598;13.450;2023-06-19T01:05:15;36.63;31.19;49.16;;
37162;Laerm;68342;52.598;13.450;2023-06-19T01:07:46;37.13;32.83;48.82;;
37162;Laerm;68342;52.598;13.450;2023-06-19T01:10:16;37.26;31.39;47.97;;
37162;Laerm;68342;52.598;13.450;2023-06-19T01:12:49;36.95;32.05;48.57;;
37162;Laerm;68342;52.598;13.450;2023-06-19T01:15:17;35.51;31.23;47.71;;
37162;Laerm;68342;52.598;13.450;2023-06-19T01:17:43;38.08;31.99;51.73;;
37162;Laerm;68342;52.598;13.450;2023-06-19T01:20:09;37.48;32.19;47.69;;
37162;Laerm;68342;52.598;13.450;2023-06-19T01:22:38;36.79;31.86;53.05;;
37162;Laerm;68342;52.598;13.450;2023-06-19T01:25:03;39.06;33.20;49.15;;
37162;Laerm;68342;52.598;13.450;2023-06-19T01:27:32;39.41;33.32;54.67;;
37162;Laerm;68342;52.598;13.450;2023-06-19T01:29:58;38.59;33.68;49.60;;
37162;Laerm;68342;52.598;13.450;2023-06-19T01:35:04;38.16;33.42;52.67;;
37162;Laerm;68342;52.598;13.450;2023-06-19T01:37:32;38.87;33.67;49.38;;
37162;Laerm;68342;52.598;13.450;2023-06-19T01:39:58;39.27;34.10;48.82;;
37162;Laerm;68342;52.598;13.450;2023-06-19T01:42:25;40.28;33.88;53.44;;
37162;Laerm;68342;52.598;13.450;2023-06-19T01:44:51;39.45;34.54;52.01;;
37162;Laerm;68342;52.598;13.450;2023-06-19T01:47:16;39.53;34.59;48.09;;
37162;Laerm;68342;52.598;13.450;2023-06-19T01:49:45;39.91;35.49;49.81;;
37162;Laerm;68342;52.598;13.450;2023-06-19T01:52:10;38.81;34.19;49.06;;
37162;Laerm;68342;52.598;13.450;2023-06-19T01:54:39;39.24;33.85;52.01;;
37162;Laerm;68342;52.598;13.450;2023-06-19T01:57:04;38.14;33.96;49.65;;
37162;Laerm;68342;52.598;13.450;2023-06-19T01:59:29;39.47;34.85;49.77;;
37162;Laerm;68342;52.598;13.450;2023-06-19T02:01:55;40.34;35.18;49.92;;
37162;Laerm;68342;52.598;13.450;2023-06-19T02:04:20;39.18;33.45;52.26;;
37162;Laerm;68342;52.598;13.450;2023-06-19T02:06:45;39.42;34.29;50.42;;
37162;Laerm;68342;52.598;13.450;2023-06-19T02:09:10;39.58;35.63;49.83;;
37162;Laerm;68342;52.598;13.450;2023-06-19T02:11:36;39.66;35.25;50.38;;
37162;Laerm;68342;52.598;13.450;2023-06-19T02:14:01;39.99;35.00;49.58;;
37162;Laerm;68342;52.598;13.450;2023-06-19T02:16:26;41.46;35.90;52.63;;
37162;Laerm;68342;52.598;13.450;2023-06-19T02:18:51;42.33;36.06;49.84;;
37162;Laerm;68342;52.598;13.450;2023-06-19T02:21:17;41.54;35.99;50.11;;
37162;Laerm;68342;52.598;13.450;2023-06-19T02:23:42;42.55;36.44;51.49;;
37162;Laerm;68342;52.598;13.450;2023-06-19T02:26:07;41.73;35.75;52.92;;
37162;Laerm;68342;52.598;13.450;2023-06-19T02:28:32;41.63;35.41;48.27;;
37162;Laerm;68342;52.598;13.450;2023-06-19T02:30:58;41.32;37.81;47.24;;
37162;Laerm;68342;52.598;13.450;2023-06-19T02:33:23;42.71;37.57;50.46;;
37162;Laerm;68342;52.598;13.450;2023-06-19T02:35:48;41.43;37.50;51.62;;
37162;Laerm;68342;52.598;13.450;2023-06-19T02:38:13;42.86;37.11;58.97;;
37162;Laerm;68342;52.598;13.450;2023-06-19T02:40:39;42.86;36.40;53.90;;
37162;Laerm;68342;52.598;13.450;2023-06-19T02:43:04;46.92;36.43;64.93;;
37162;Laerm;68342;52.598;13.450;2023-06-19T02:45:30;47.09;38.25;64.26;;
37162;Laerm;68342;52.598;13.450;2023-06-19T02:47:55;45.40;38.64;60.88;;
37162;Laerm;68342;52.598;13.450;2023-06-19T02:50:20;41.52;36.65;57.47;;
37162;Laerm;68342;52.598;13.450;2023-06-19T02:52:45;42.52;37.21;57.93;;
37162;Laerm;68342;52.598;13.450;2023-06-19T02:55:11;42.24;37.96;51.74;;
37162;Laerm;68342;52.598;13.450;2023-06-19T02:57:36;43.50;39.33;61.83;;
37162;Laerm;68342;52.598;13.450;2023-06-19T03:00:01;44.15;38.69;51.39;;
37162;Laerm;68342;52.598;13.450;2023-06-19T03:02:28;43.95;38.43;51.70;;
37162;Laerm;68342;52.598;13.450;2023-06-19T03:04:53;44.16;38.59;57.27;;
37162;Laerm;68342;52.598;13.450;2023-06-19T03:07:18;44.42;38.54;57.69;;
37162;Laerm;68342;52.598;13.450;2023-06-19T03:09:44;45.58;39.36;59.62;;
37162;Laerm;68342;52.598;13.450;2023-06-19T03:12:09;44.19;37.99;57.08;;
37162;Laerm;68342;52.598;13.450;2023-06-19T03:14:34;45.84;40.02;59.81;;
37162;Laerm;68342;52.598;13.450;2023-06-19T03:16:59;49.01;40.17;67.36;;
37162;Laerm;68342;52.598;13.450;2023-06-19T03:19:25;49.77;40.54;67.02;;
37162;Laerm;68342;52.598;13.450;2023-06-19T03:21:50;52.91;41.06;69.16;;
37162;Laerm;68342;52.598;13.450;2023-06-19T03:24:15;53.52;41.46;71.73;;
37162;Laerm;68342;52.598;13.450;2023-06-19T03:26:44;54.04;40.36;71.81;;
37162;Laerm;68342;52.598;13.450;2023-06-19T03:29:09;52.50;40.04;70.47;;
37162;Laerm;68342;52.598;13.450;2023-06-19T03:31:34;51.78;40.56;70.02;;
37162;Laerm;68342;52.598;13.450;2023-06-19T03:33:59;47.05;40.05;60.81;;
37162;Laerm;68342;52.598;13.450;2023-06-19T03:36:25;46.23;40.27;59.35;;
37162;Laerm;68342;52.598;13.450;2023-06-19T03:38:50;47.10;41.47;62.06;;
37162;Laerm;68342;52.598;13.450;2023-06-19T03:41:15;48.30;40.39;61.64;;
37162;Laerm;68342;52.598;13.450;2023-06-19T03:43:40;46.49;41.04;61.69;;
37162;Laerm;68342;52.598;13.450;2023-06-19T03:46:12;46.85;40.43;64.07;;
37162;Laerm;68342;52.598;13.450;2023-06-19T03:48:37;45.71;40.20;59.39;;
37162;Laerm;68342;52.598;13.450;2023-06-19T03:51:02;44.39;40.11;56.06;;
37162;Laerm;68342;52.598;13.450;2023-06-19T03:53:28;43.88;39.59;54.98;;
37162;Laerm;68342;52.598;13.450;2023-06-19T03:55:53;43.97;39.34;54.27;;
37162;Laerm;68342;52.598;13.450;2023-06-19T03:58:19;43.58;39.91;51.84;;
37162;Laerm;68342;52.598;13.450;2023-06-19T04:00:44;43.61;40.07;50.40;;
37162;Laerm;68342;52.598;13.450;2023-06-19T04:03:10;49.17;39.92;68.94;;
37162;Laerm;68342;52.598;13.450;2023-06-19T04:05:35;47.78;40.33;60.31;;
37162;Laerm;68342;52.598;13.450;2023-06-19T04:08:00;45.38;39.40;58.08;;
37162;Laerm;68342;52.598;13.450;2023-06-19T04:10:25;44.36;39.68;59.08;;
37162;Laerm;68342;52.598;13.450;2023-06-19T04:12:51;43.88;39.84;56.06;;
37162;Laerm;68342;52.598;13.450;2023-06-19T04:15:16;45.06;40.54;55.12;;
37162;Laerm;68342;52.598;13.450;2023-06-19T04:17:41;48.46;39.93;64.79;;
37162;Laerm;68342;52.598;13.450;2023-06-19T04:20:07;45.30;40.13;56.19;;
37162;Laerm;68342;52.598;13.450;2023-06-19T04:22:36;43.88;39.86;57.36;;
37162;Laerm;68342;52.598;13.450;2023-06-19T04:25:06;47.92;41.32;59.59;;
37162;Laerm;68342;52.598;13.450;2023-06-19T04:27:31;45.65;40.07;60.95;;
37162;Laerm;68342;52.598;13.450;2023-06-19T04:29:56;50.19;41.01;67.59;;
37162;Laerm;68342;52.598;13.450;2023-06-19T04:32:22;48.65;39.97;67.55;;
37162;Laerm;68342;52.598;13.450;2023-06-19T04:34:50;48.82;39.83;67.86;;
37162;Laerm;68342;52.598;13.450;2023-06-19T04:37:15;42.87;39.46;54.08;;
37162;Laerm;68342;52.598;13.450;2023-06-19T04:39:44;42.48;39.06;52.89;;
37162;Laerm;68342;52.598;13.450;2023-06-19T04:42:09;43.53;39.32;59.28;;
37162;Laerm;68342;52.598;13.450;2023-06-19T04:44:35;46.24;38.84;59.49;;
37162;Laerm;68342;52.598;13.450;2023-06-19T04:47:00;42.80;38.70;57.78;;
37162;Laerm;68342;52.598;13.450;2023-06-19T04:49:28;43.64;39.43;54.97;;
37162;Laerm;68342;52.598;13.450;2023-06-19T04:51:55;47.46;38.80;64.24;;
37162;Laerm;68342;52.598;13.450;2023-06-19T04:54:20;46.04;38.92;65.20;;
37162;Laerm;68342;52.598;13.450;2023-06-19T04:56:46;45.04;38.49;58.68;;
37162;Laerm;68342;52.598;13.450;2023-06-19T04:59:11;46.53;38.62;62.09;;
37162;Laerm;68342;52.598;13.450;2023-06-19T05:01:36;45.25;37.88;57.99;;
37162;Laerm;68342;52.598;13.450;2023-06-19T05:04:05;45.91;38.88;66.27;;
37162;Laerm;68342;52.598;13.450;2023-06-19T05:06:30;43.61;39.01;59.95;;
37162;Laerm;68342;52.598;13.450;2023-06-19T05:08:55;46.32;39.28;65.30;;
37162;Laerm;68342;52.598;13.450;2023-06-19T05:11:21;43.19;38.66;54.04;;
37162;Laerm;68342;52.598;13.450;2023-06-19T05:13:46;43.63;38.73;52.89;;
37162;Laerm;68342;52.598;13.450;2023-06-19T05:16:11;43.78;39.42;56.50;;
37162;Laerm;68342;52.598;13.450;2023-06-19T05:18:41;44.25;38.52;65.52;;
37162;Laerm;68342;52.598;13.450;2023-06-19T05:21:06;43.39;40.16;53.17;;
37162;Laerm;68342;52.598;13.450;2023-06-19T05:23:31;44.93;41.22;53.46;;
37162;Laerm;68342;52.598;13.450;2023-06-19T05:25:56;45.68;40.27;65.29;;
37162;Laerm;68342;52.598;13.450;2023-06-19T05:28:22;45.00;40.50;56.26;;
37162;Laerm;68342;52.598;13.450;2023-06-19T05:30:47;44.08;40.09;55.52;;
37162;Laerm;68342;52.598;13.450;2023-06-19T05:33:12;45.08;41.88;53.65;;
37162;Laerm;68342;52.598;13.450;2023-06-19T05:35:41;44.71;40.94;53.60;;
37162;Laerm;68342;52.598;13.450;2023-06-19T05:38:06;45.65;40.60;58.32;;
37162;Laerm;68342;52.598;13.450;2023-06-19T05:40:31;45.19;41.24;60.69;;
37162;Laerm;68342;52.598;13.450;2023-06-19T05:42:57;45.67;41.00;61.04;;
37162;Laerm;68342;52.598;13.450;2023-06-19T05:45:22;45.08;40.68;57.61;;
37162;Laerm;68342;52.598;13.450;2023-06-19T05:47:47;45.52;39.98;57.43;;
37162;Laerm;68342;52.598;13.450;2023-06-19T05:50:12;45.41;40.55;60.82;;
37162;Laerm;68342;52.598;13.450;2023-06-19T05:52:38;47.36;40.30;55.97;;
37162;Laerm;68342;52.598;13.450;2023-06-19T05:55:07;46.00;39.86;58.30;;
37162;Laerm;68342;52.598;13.450;2023-06-19T05:57:33;44.04;40.11;52.73;;
37162;Laerm;68342;52.598;13.450;2023-06-19T05:59:58;44.75;40.70;59.65;;
37162;Laerm;68342;52.598;13.450;2023-06-19T06:02:23;44.92;40.81;56.66;;
37162;Laerm;68342;52.598;13.450;2023-06-19T06:04:49;45.46;40.03;57.21;;
37162;Laerm;68342;52.598;13.450;2023-06-19T06:07:14;44.93;40.00;57.47;;
37162;Laerm;68342;52.598;13.450;2023-06-19T06:09:39;43.61;39.30;62.81;;
37162;Laerm;68342;52.598;13.450;2023-06-19T06:12:04;44.89;39.85;60.35;;
37162;Laerm;68342;52.598;13.450;2023-06-19T06:14:30;44.66;39.87;66.72;;
37162;Laerm;68342;52.598;13.450;2023-06-19T06:16:55;43.40;39.50;51.70;;
37162;Laerm;68342;52.598;13.450;2023-06-19T06:19:21;45.54;40.92;60.31;;
37162;Laerm;68342;52.598;13.450;2023-06-19T06:21:49;46.18;40.15;59.71;;
37162;Laerm;68342;52.598;13.450;2023-06-19T06:24:14;46.20;40.30;56.74;;
37162;Laerm;68342;52.598;13.450;2023-06-19T06:26:39;47.83;39.85;65.36;;
37162;Laerm;68342;52.598;13.450;2023-06-19T06:29:05;48.13;40.13;62.97;;
37162;Laerm;68342;52.598;13.450;2023-06-19T06:31:30;49.85;40.00;73.98;;
37162;Laerm;68342;52.598;13.450;2023-06-19T06:33:55;51.96;39.86;68.71;;
37162;Laerm;68342;52.598;13.450;2023-06-19T06:36:24;55.18;40.08;71.89;;
37162;Laerm;68342;52.598;13.450;2023-06-19T06:38:50;44.08;39.97;62.40;;
37162;Laerm;68342;52.598;13.450;2023-06-19T06:41:15;44.57;40.84;55.29;;
37162;Laerm;68342;52.598;13.450;2023-06-19T06:43:40;45.60;40.70;56.45;;
37162;Laerm;68342;52.598;13.450;2023-06-19T06:46:07;44.79;40.47;54.13;;
37162;Laerm;68342;52.598;13.450;2023-06-19T06:48:33;43.50;39.36;50.40;;
37162;Laerm;68342;52.598;13.450;2023-06-19T06:50:58;44.96;40.43;53.83;;
37162;Laerm;68342;52.598;13.450;2023-06-19T06:53:26;44.56;39.56;54.77;;
37162;Laerm;68342;52.598;13.450;2023-06-19T06:55:53;45.29;39.86;55.00;;
37162;Laerm;68342;52.598;13.450;2023-06-19T06:58:18;43.95;39.29;57.06;;
37162;Laerm;68342;52.598;13.450;2023-06-19T07:00:44;44.44;39.45;59.32;;
37162;Laerm;68342;52.598;13.450;2023-06-19T07:03:09;46.30;39.78;60.55;;
37162;Laerm;68342;52.598;13.450;2023-06-19T07:05:34;44.05;39.27;55.21;;
37162;Laerm;68342;52.598;13.450;2023-06-19T07:07:59;43.46;39.00;53.59;;
37162;Laerm;68342;52.598;13.450;2023-06-19T07:10:24;44.82;38.59;58.16;;
37162;Laerm;68342;52.598;13.450;2023-06-19T07:12:50;43.15;38.39;58.41;;
37162;Laerm;68342;52.598;13.450;2023-06-19T07:15:19;43.31;38.61;58.05;;
37162;Laerm;68342;52.598;13.450;2023-06-19T07:17:44;42.72;38.32;56.26;;
37162;Laerm;68342;52.598;13.450;2023-06-19T07:20:10;44.84;38.22;62.51;;
37162;Laerm;68342;52.598;13.450;2023-06-19T07:22:36;44.08;38.43;57.96;;
37162;Laerm;68342;52.598;13.450;2023-06-19T07:25:01;45.93;38.57;56.02;;
37162;Laerm;68342;52.598;13.450;2023-06-19T07:27:28;46.25;38.44;61.93;;
37162;Laerm;68342;52.598;13.450;2023-06-19T07:29:53;43.51;38.74;54.15;;
37162;Laerm;68342;52.598;13.450;2023-06-19T07:32:19;43.40;38.24;63.08;;
37162;Laerm;68342;52.598;13.450;2023-06-19T07:34:45;43.63;38.21;58.82;;
37162;Laerm;68342;52.598;13.450;2023-06-19T07:37:10;42.56;36.27;56.50;;
37162;Laerm;68342;52.598;13.450;2023-06-19T07:39:37;42.23;36.16;58.37;;
37162;Laerm;68342;52.598;13.450;2023-06-19T07:42:02;45.35;38.36;61.68;;
37162;Laerm;68342;52.598;13.450;2023-06-19T07:44:28;49.45;37.10;66.63;;
37162;Laerm;68342;52.598;13.450;2023-06-19T07:46:53;48.80;36.66;64.68;;
37162;Laerm;68342;52.598;13.450;2023-06-19T07:49:18;45.12;35.48;62.29;;
37162;Laerm;68342;52.598;13.450;2023-06-19T07:51:43;44.83;35.38;67.81;;
37162;Laerm;68342;52.598;13.450;2023-06-19T07:54:09;47.94;36.32;65.58;;
37162;Laerm;68342;52.598;13.450;2023-06-19T07:56:34;47.69;35.71;61.72;;
37162;Laerm;68342;52.598;13.450;2023-06-19T07:58:59;49.56;36.32;61.35;;
37162;Laerm;68342;52.598;13.450;2023-06-19T08:01:25;43.94;34.75;58.85;;
37162;Laerm;68342;52.598;13.450;2023-06-19T08:03:50;42.16;35.14;56.99;;
37162;Laerm;68342;52.598;13.450;2023-06-19T08:06:15;46.03;34.65;62.86;;
37162;Laerm;68342;52.598;13.450;2023-06-19T08:08:40;42.40;34.54;62.23;;
37162;Laerm;68342;52.598;13.450;2023-06-19T08:11:06;41.34;34.26;53.58;;
37162;Laerm;68342;52.598;13.450;2023-06-19T08:13:31;43.06;34.16;58.36;;
37162;Laerm;68342;52.598;13.450;2023-06-19T08:15:56;43.46;34.75;59.61;;
37162;Laerm;68342;52.598;13.450;2023-06-19T08:18:21;42.68;34.66;58.56;;
37162;Laerm;68342;52.598;13.450;2023-06-19T08:20:46;44.18;35.35;55.99;;
37162;Laerm;68342;52.598;13.450;2023-06-19T08:23:12;46.98;36.20;61.40;;
37162;Laerm;68342;52.598;13.450;2023-06-19T08:25:37;42.96;35.10;65.42;;
37162;Laerm;68342;52.598;13.450;2023-06-19T08:28:02;43.17;34.53;67.97;;
37162;Laerm;68342;52.598;13.450;2023-06-19T08:30:28;44.36;34.99;59.23;;
37162;Laerm;68342;52.598;13.450;2023-06-19T08:32:53;45.45;35.46;59.49;;
37162;Laerm;68342;52.598;13.450;2023-06-19T08:35:18;43.44;34.85;56.73;;
37162;Laerm;68342;52.598;13.450;2023-06-19T08:37:43;43.36;35.26;59.36;;
37162;Laerm;68342;52.598;13.450;2023-06-19T08:40:09;41.84;36.07;55.35;;
37162;Laerm;68342;52.598;13.450;2023-06-19T08:42:35;47.22;36.52;67.98;;
37162;Laerm;68342;52.598;13.450;2023-06-19T08:45:00;48.90;37.45;63.66;;
37162;Laerm;68342;52.598;13.450;2023-06-19T08:47:32;47.06;36.37;62.90;;
37162;Laerm;68342;52.598;13.450;2023-06-19T08:49:58;45.53;35.22;59.22;;
37162;Laerm;68342;52.598;13.450;2023-06-19T08:52:27;45.91;35.14;75.17;;
37162;Laerm;68342;52.598;13.450;2023-06-19T08:54:53;41.01;34.81;52.85;;
37162;Laerm;68342;52.598;13.450;2023-06-19T08:57:18;44.45;35.48;57.59;;
37162;Laerm;68342;52.598;13.450;2023-06-19T08:59:49;45.26;35.82;58.09;;
37162;Laerm;68342;52.598;13.450;2023-06-19T09:02:15;46.56;35.44;61.36;;
37162;Laerm;68342;52.598;13.450;2023-06-19T09:04:41;46.80;35.71;63.03;;
37162;Laerm;68342;52.598;13.450;2023-06-19T09:07:07;50.61;36.26;69.13;;
37162;Laerm;68342;52.598;13.450;2023-06-19T09:09:32;43.66;35.80;63.59;;
37162;Laerm;68342;52.598;13.450;2023-06-19T09:14:24;43.16;34.92;55.19;;
37162;Laerm;68342;52.598;13.450;2023-06-19T09:16:49;45.71;35.35;55.54;;
37162;Laerm;68342;52.598;13.450;2023-06-19T09:19:19;44.57;35.68;59.37;;
37162;Laerm;68342;52.598;13.450;2023-06-19T09:21:45;41.72;34.85;51.68;;
37162;Laerm;68342;52.598;13.450;2023-06-19T09:24:10;42.03;36.08;58.07;;
37162;Laerm;68342;52.598;13.450;2023-06-19T09:26:35;51.98;37.57;70.64;;
37162;Laerm;68342;52.598;13.450;2023-06-19T09:29:13;44.18;36.66;67.65;;
37162;Laerm;68342;52.598;13.450;2023-06-19T09:31:39;43.25;36.75;58.26;;
37162;Laerm;68342;52.598;13.450;2023-06-19T09:34:06;42.70;38.10;56.54;;
37162;Laerm;68342;52.598;13.450;2023-06-19T09:36:31;45.93;36.59;62.06;;
37162;Laerm;68342;52.598;13.450;2023-06-19T09:38:57;45.81;35.65;59.55;;
37162;Laerm;68342;52.598;13.450;2023-06-19T09:41:24;42.75;35.15;58.42;;
37162;Laerm;68342;52.598;13.450;2023-06-19T09:43:50;41.53;33.95;57.07;;
37162;Laerm;68342;52.598;13.450;2023-06-19T09:46:19;43.95;35.28;60.71;;
37162;Laerm;68342;52.598;13.450;2023-06-19T09:48:45;43.64;35.07;58.28;;
37162;Laerm;68342;52.598;13.450;2023-06-19T09:53:40;48.90;35.79;63.24;;
37162;Laerm;68342;52.598;13.450;2023-06-19T09:56:05;45.24;35.74;62.13;;
37162;Laerm;68342;52.598;13.450;2023-06-19T09:58:33;43.94;34.59;57.05;;
37162;Laerm;68342;52.598;13.450;2023-06-19T10:00:59;45.01;36.90;56.35;;
37162;Laerm;68342;52.598;13.450;2023-06-19T10:03:32;44.81;35.23;57.76;;
37162;Laerm;68342;52.598;13.450;2023-06-19T10:05:58;40.25;34.24;54.32;;
37162;Laerm;68342;52.598;13.450;2023-06-19T10:08:29;43.20;34.50;66.41;;
37162;Laerm;68342;52.598;13.450;2023-06-19T10:10:55;45.94;34.72;66.32;;
37162;Laerm;68342;52.598;13.450;2023-06-19T10:13:21;40.93;34.52;55.94;;
37162;Laerm;68342;52.598;13.450;2023-06-19T10:15:46;40.49;34.59;59.12;;
37162;Laerm;68342;52.598;13.450;2023-06-19T10:18:16;42.84;34.63;56.77;;
37162;Laerm;68342;52.598;13.450;2023-06-19T10:20:41;42.74;36.17;54.36;;
37162;Laerm;68342;52.598;13.450;2023-06-19T10:23:17;41.48;33.74;58.22;;
37162;Laerm;68342;52.598;13.450;2023-06-19T10:25:46;47.92;34.22;68.74;;
37162;Laerm;68342;52.598;13.450;2023-06-19T10:31:22;44.47;34.23;61.72;;
37162;Laerm;68342;52.598;13.450;2023-06-19T10:33:40;51.16;34.40;69.92;;
37162;Laerm;68342;52.598;13.450;2023-06-19T10:36:18;43.75;34.34;63.34;;
37162;Laerm;68342;52.598;13.450;2023-06-19T10:38:44;49.07;35.41;59.81;;
37162;Laerm;68342;52.598;13.450;2023-06-19T10:41:18;40.66;34.27;56.38;;
37162;Laerm;68342;52.598;13.450;2023-06-19T10:43:56;42.16;34.60;59.12;;
37162;Laerm;68342;52.598;13.450;2023-06-19T10:46:22;43.12;35.01;59.04;;
37162;Laerm;68342;52.598;13.450;2023-06-19T10:48:48;45.22;35.41;56.96;;
37162;Laerm;68342;52.598;13.450;2023-06-19T10:51:18;44.66;34.71;63.70;;
37162;Laerm;68342;52.598;13.450;2023-06-19T10:53:43;41.14;34.67;57.33;;
37162;Laerm;68342;52.598;13.450;2023-06-19T10:56:08;42.17;35.19;64.15;;
37162;Laerm;68342;52.598;13.450;2023-06-19T10:58:33;42.43;35.11;62.87;;
37162;Laerm;68342;52.598;13.450;2023-06-19T11:00:59;41.82;35.00;54.91;;
37162;Laerm;68342;52.598;13.450;2023-06-19T11:03:24;42.29;34.66;56.57;;
37162;Laerm;68342;52.598;13.450;2023-06-19T11:05:49;40.34;35.58;52.88;;
37162;Laerm;68342;52.598;13.450;2023-06-19T11:08:18;41.96;34.31;59.46;;
37162;Laerm;68342;52.598;13.450;2023-06-19T11:10:44;40.75;34.82;55.00;;
37162;Laerm;68342;52.598;13.450;2023-06-19T11:13:13;41.07;34.68;56.76;;
37162;Laerm;68342;52.598;13.450;2023-06-19T11:15:38;41.58;34.56;56.68;;
37162;Laerm;68342;52.598;13.450;2023-06-19T11:18:04;44.60;38.04;58.01;;
37162;Laerm;68342;52.598;13.450;2023-06-19T11:20:29;44.94;38.77;57.45;;
37162;Laerm;68342;52.598;13.450;2023-06-19T11:22:56;41.20;35.95;49.94;;
37162;Laerm;68342;52.598;13.450;2023-06-19T11:25:22;41.89;36.21;53.98;;
37162;Laerm;68342;52.598;13.450;2023-06-19T11:27:47;43.12;36.31;51.63;;
37162;Laerm;68342;52.598;13.450;2023-06-19T11:30:17;39.60;34.89;51.96;;
37162;Laerm;68342;52.598;13.450;2023-06-19T11:32:43;39.87;35.50;56.20;;
37162;Laerm;68342;52.598;13.450;2023-06-19T11:35:10;41.18;35.40;52.46;;
37162;Laerm;68342;52.598;13.450;2023-06-19T11:37:36;40.82;35.29;51.96;;
37162;Laerm;68342;52.598;13.450;2023-06-19T11:40:02;47.26;35.74;65.31;;
37162;Laerm;68342;52.598;13.450;2023-06-19T11:42:44;48.22;35.73;66.48;;
37162;Laerm;68342;52.598;13.450;2023-06-19T11:45:09;50.71;35.60;66.39;;
37162;Laerm;68342;52.598;13.450;2023-06-19T11:47:34;41.73;35.47;58.38;;
37162;Laerm;68342;52.598;13.450;2023-06-19T11:50:03;44.51;36.66;57.34;;
37162;Laerm;68342;52.598;13.450;2023-06-19T11:52:28;40.08;35.82;55.00;;
37162;Laerm;68342;52.598;13.450;2023-06-19T11:54:53;40.33;35.81;53.49;;
37162;Laerm;68342;52.598;13.450;2023-06-19T11:57:19;41.90;35.79;60.41;;
37162;Laerm;68342;52.598;13.450;2023-06-19T11:59:44;41.55;36.23;62.82;;
37162;Laerm;68342;52.598;13.450;2023-06-19T12:02:09;45.56;35.99;60.83;;
37162;Laerm;68342;52.598;13.450;2023-06-19T12:04:34;43.68;36.11;62.87;;
37162;Laerm;68342;52.598;13.450;2023-06-19T12:07:00;41.72;36.12;54.82;;
37162;Laerm;68342;52.598;13.450;2023-06-19T12:09:25;41.45;36.50;56.03;;
37162;Laerm;68342;52.598;13.450;2023-06-19T12:11:51;45.08;36.07;67.04;;
37162;Laerm;68342;52.598;13.450;2023-06-19T12:14:16;44.70;35.36;58.57;;
37162;Laerm;68342;52.598;13.450;2023-06-19T12:16:43;39.78;35.47;50.48;;
37162;Laerm;68342;52.598;13.450;2023-06-19T12:19:08;39.82;34.59;52.16;;
37162;Laerm;68342;52.598;13.450;2023-06-19T12:21:33;41.00;36.08;57.27;;
37162;Laerm;68342;52.598;13.450;2023-06-19T12:23:58;41.10;36.62;57.31;;
37162;Laerm;68342;52.598;13.450;2023-06-19T12:26:23;41.34;37.57;52.46;;
37162;Laerm;68342;52.598;13.450;2023-06-19T12:28:51;40.40;36.83;54.79;;
37162;Laerm;68342;52.598;13.450;2023-06-19T12:31:17;40.67;36.03;52.05;;
37162;Laerm;68342;52.598;13.450;2023-06-19T12:33:42;39.96;36.56;53.43;;
37162;Laerm;68342;52.598;13.450;2023-06-19T12:36:11;43.61;35.72;60.47;;
37162;Laerm;68342;52.598;13.450;2023-06-19T12:38:40;43.73;36.64;59.57;;
37162;Laerm;68342;52.598;13.450;2023-06-19T12:41:08;41.50;36.60;59.05;;
37162;Laerm;68342;52.598;13.450;2023-06-19T12:43:34;42.26;36.40;57.12;;
37162;Laerm;68342;52.598;13.450;2023-06-19T12:45:59;42.61;36.96;52.04;;
37162;Laerm;68342;52.598;13.450;2023-06-19T12:48:25;41.54;36.20;56.45;;
37162;Laerm;68342;52.598;13.450;2023-06-19T12:50:50;42.88;36.27;53.68;;
37162;Laerm;68342;52.598;13.450;2023-06-19T12:53:15;41.45;36.41;55.47;;
37162;Laerm;68342;52.598;13.450;2023-06-19T12:55:40;44.76;37.83;57.53;;
37162;Laerm;68342;52.598;13.450;2023-06-19T12:58:06;41.99;37.09;54.09;;
37162;Laerm;68342;52.598;13.450;2023-06-19T13:00:31;43.53;37.43;55.90;;
37162;Laerm;68342;52.598;13.450;2023-06-19T13:02:56;44.66;36.85;56.93;;
37162;Laerm;68342;52.598;13.450;2023-06-19T13:05:21;43.24;37.84;61.77;;
37162;Laerm;68342;52.598;13.450;2023-06-19T13:07:47;41.52;36.93;54.39;;
37162;Laerm;68342;52.598;13.450;2023-06-19T13:10:12;43.50;37.63;54.33;;
37162;Laerm;68342;52.598;13.450;2023-06-19T13:12:37;43.09;38.39;54.91;;
37162;Laerm;68342;52.598;13.450;2023-06-19T13:15:03;42.50;37.61;54.03;;
37162;Laerm;68342;52.598;13.450;2023-06-19T13:17:28;43.12;37.21;53.90;;
37162;Laerm;68342;52.598;13.450;2023-06-19T13:19:53;41.97;36.92;56.34;;
37162;Laerm;68342;52.598;13.450;2023-06-19T13:22:18;43.42;36.57;61.00;;
37162;Laerm;68342;52.598;13.450;2023-06-19T13:24:44;45.01;36.26;63.95;;
37162;Laerm;68342;52.598;13.450;2023-06-19T13:27:09;39.90;36.01;51.23;;
37162;Laerm;68342;52.598;13.450;2023-06-19T13:29:34;41.25;36.42;55.20;;
37162;Laerm;68342;52.598;13.450;2023-06-19T13:32:00;42.21;37.21;55.98;;
37162;Laerm;68342;52.598;13.450;2023-06-19T13:34:25;43.10;36.81;52.75;;
37162;Laerm;68342;52.598;13.450;2023-06-19T13:36:51;43.16;36.98;57.00;;